createdAt,value
2017-11-22T00:01:23.772Z,9.40
2017-11-22T00:03:51.296Z,3.40
2017-11-22T00:06:18.792Z,8.20
2017-11-22T00:08:46.319Z,12.73
2017-11-22T00:11:13.831Z,5.20
2017-11-22T00:13:41.360Z,5.95
2017-11-22T00:16:08.855Z,4.62
2017-11-22T00:18:36.381Z,11.23
2017-11-22T00:21:03.892Z,4.45
2017-11-22T00:23:31.440Z,5.80
2017-11-22T00:25:58.966Z,7.70
2017-11-22T00:28:26.468Z,6.28
2017-11-22T00:30:54.005Z,6.87
2017-11-22T00:33:21.507Z,4.50
2017-11-22T00:35:49.037Z,17.15
2017-11-22T00:38:16.545Z,5.93
2017-11-22T00:40:44.067Z,1.87
2017-11-22T00:43:11.563Z,8.02
2017-11-22T00:45:39.083Z,3.37
2017-11-22T00:48:06.583Z,3.70
2017-11-22T00:50:34.110Z,5.53
2017-11-22T00:53:01.621Z,5.35
2017-11-22T00:55:29.159Z,11.45
2017-11-22T00:57:56.671Z,5.28
2017-11-22T01:00:24.180Z,4.57
2017-11-22T01:02:51.701Z,4.82
2017-11-22T01:05:19.196Z,6.53
2017-11-22T01:07:46.725Z,5.82
2017-11-22T01:10:14.224Z,9.10
2017-11-22T01:12:41.743Z,4.25
2017-11-22T01:15:09.259Z,8.35
2017-11-22T01:17:36.784Z,5.40
2017-11-22T01:20:04.284Z,7.75
2017-11-22T01:22:32.590Z,5.28
2017-11-22T01:25:00.137Z,11.30
2017-11-22T01:27:27.648Z,6.50
2017-11-22T01:29:55.181Z,7.43
2017-11-22T01:32:22.688Z,3.35
2017-11-22T01:34:50.972Z,7.28
2017-11-22T01:37:19.251Z,15.05
2017-11-22T01:39:46.776Z,8.15
2017-11-22T01:42:14.284Z,11.20
2017-11-22T01:44:41.809Z,7.15
2017-11-22T01:47:10.076Z,5.72
2017-11-22T01:49:37.620Z,8.40
2017-11-22T01:52:05.133Z,9.70
2017-11-22T01:54:32.677Z,6.35
2017-11-22T01:57:00.187Z,5.55
2017-11-22T01:59:27.687Z,4.85
2017-11-22T02:01:55.975Z,8.32
2017-11-22T02:04:24.248Z,4.65
2017-11-22T02:06:52.732Z,5.75
2017-11-22T02:09:20.991Z,5.00
2017-11-22T02:11:49.283Z,9.38
2017-11-22T02:14:17.564Z,5.35
2017-11-22T02:16:45.864Z,6.15
2017-11-22T02:19:13.364Z,3.70
2017-11-22T02:21:40.880Z,4.80
2017-11-22T02:24:08.384Z,4.72
2017-11-22T02:26:35.911Z,5.25
2017-11-22T02:29:03.415Z,9.05
2017-11-22T02:31:30.949Z,8.82
2017-11-22T02:33:58.457Z,3.62
2017-11-22T02:36:25.985Z,5.68
2017-11-22T02:38:53.477Z,4.12
2017-11-22T02:41:21.003Z,3.45
2017-11-22T02:43:48.500Z,6.85
2017-11-22T02:46:16.036Z,4.15
2017-11-22T02:48:43.536Z,9.27
2017-11-22T02:51:11.081Z,2.72
2017-11-22T02:53:38.591Z,5.12
2017-11-22T02:56:06.100Z,11.88
2017-11-22T02:58:33.623Z,2.85
2017-11-22T03:01:01.138Z,2.83
2017-11-22T03:03:28.676Z,11.23
2017-11-22T03:05:56.175Z,6.32
2017-11-22T03:08:23.705Z,11.93
2017-11-22T03:10:51.969Z,5.40
2017-11-22T03:13:19.487Z,3.10
2017-11-22T03:15:46.987Z,10.32
2017-11-22T03:18:14.508Z,8.20
2017-11-22T03:20:42.008Z,2.55
2017-11-22T03:23:09.551Z,4.22
2017-11-22T03:25:37.059Z,4.95
2017-11-22T03:28:04.648Z,5.20
2017-11-22T03:30:32.155Z,6.30
2017-11-22T03:32:59.681Z,2.60
2017-11-22T03:35:27.970Z,3.97
2017-11-22T03:37:56.264Z,6.87
2017-11-22T03:40:23.771Z,6.55
2017-11-22T03:42:51.274Z,4.43
2017-11-22T03:45:18.799Z,5.20
2017-11-22T03:47:48.128Z,4.53
2017-11-22T03:50:16.456Z,3.85
2017-11-22T03:52:49.507Z,6.03
2017-11-22T03:55:17.024Z,6.60
2017-11-22T03:57:49.306Z,9.18
2017-11-22T04:00:16.828Z,8.93
2017-11-22T04:02:49.868Z,3.72
2017-11-22T04:05:17.385Z,4.05
2017-11-22T04:07:44.889Z,13.13
2017-11-22T04:10:12.410Z,8.07
2017-11-22T04:12:39.903Z,8.05
2017-11-22T04:15:07.433Z,5.05
2017-11-22T04:17:34.927Z,6.75
2017-11-22T04:20:02.446Z,8.73
2017-11-22T04:22:29.952Z,2.20
2017-11-22T04:24:57.468Z,1.52
2017-11-22T04:27:24.972Z,9.68
2017-11-22T04:29:52.498Z,8.73
2017-11-22T04:32:20.007Z,2.47
2017-11-22T04:34:47.532Z,4.97
2017-11-22T04:37:15.803Z,4.43
2017-11-22T04:39:44.101Z,4.28
2017-11-22T04:42:11.611Z,4.00
2017-11-22T04:44:39.131Z,1.98
2017-11-22T04:47:06.637Z,3.50
2017-11-22T04:49:34.155Z,12.02
2017-11-22T04:52:01.654Z,7.43
2017-11-22T04:54:29.196Z,8.25
2017-11-22T04:56:56.723Z,4.20
2017-11-22T04:59:24.224Z,7.18
2017-11-22T05:01:51.744Z,4.43
2017-11-22T05:04:19.247Z,5.25
2017-11-22T05:06:46.763Z,5.18
2017-11-22T05:09:14.272Z,7.65
2017-11-22T05:11:41.797Z,9.05
2017-11-22T05:14:09.309Z,6.95
2017-11-22T05:16:37.599Z,4.80
2017-11-22T05:19:05.108Z,6.03
2017-11-22T05:21:32.636Z,4.50
2017-11-22T05:24:00.128Z,5.82
2017-11-22T05:26:27.652Z,3.75
2017-11-22T05:28:55.154Z,3.80
2017-11-22T05:31:22.674Z,3.62
2017-11-22T05:33:50.212Z,4.28
2017-11-22T05:36:17.744Z,9.75
2017-11-22T05:38:45.247Z,5.82
2017-11-22T05:41:12.772Z,9.15
2017-11-22T05:43:40.289Z,11.70
2017-11-22T05:46:07.805Z,12.57
2017-11-22T05:48:36.086Z,2.95
2017-11-22T05:51:03.601Z,4.90
2017-11-22T05:53:31.128Z,5.05
2017-11-22T05:55:58.626Z,3.67
2017-11-22T05:58:26.219Z,5.20
2017-11-22T06:00:53.740Z,7.72
2017-11-22T06:03:21.272Z,5.80
2017-11-22T06:05:48.792Z,2.58
2017-11-22T06:08:16.317Z,11.00
2017-11-22T06:10:43.830Z,4.65
2017-11-22T06:13:11.348Z,2.90
2017-11-22T06:15:40.336Z,3.15
2017-11-22T06:18:07.871Z,5.25
2017-11-22T06:20:35.386Z,13.40
2017-11-22T06:23:02.913Z,9.80
2017-11-22T06:25:30.430Z,8.80
2017-11-22T06:27:57.984Z,17.42
2017-11-22T06:30:31.319Z,13.35
2017-11-22T06:32:58.853Z,12.18
2017-11-22T06:35:26.365Z,17.65
2017-11-22T06:37:54.661Z,18.80
2017-11-22T06:40:22.178Z,18.35
2017-11-22T06:42:49.688Z,20.33
2017-11-22T06:45:17.218Z,22.33
2017-11-22T06:47:45.493Z,27.08
2017-11-22T06:50:13.047Z,18.98
2017-11-22T06:52:40.569Z,17.45
2017-11-22T06:55:08.110Z,15.93
2017-11-22T06:57:35.624Z,13.43
2017-11-22T07:00:03.148Z,17.37
2017-11-22T07:02:36.369Z,9.98
2017-11-22T07:05:03.991Z,8.02
2017-11-22T07:07:31.512Z,8.27
2017-11-22T07:09:59.813Z,6.25
2017-11-22T07:12:27.348Z,5.18
2017-11-22T07:14:55.632Z,8.07
2017-11-22T07:17:29.829Z,2.42
2017-11-22T07:19:58.127Z,3.00
2017-11-22T07:22:25.636Z,4.60
2017-11-22T07:24:53.161Z,6.07
2017-11-22T07:27:20.673Z,2.05
2017-11-22T07:29:48.201Z,6.75
2017-11-22T07:32:15.700Z,1.90
2017-11-22T07:34:44.023Z,6.37
2017-11-22T07:37:17.290Z,8.13
2017-11-22T07:39:45.605Z,5.03
2017-11-22T07:42:13.123Z,4.72
2017-11-22T07:44:41.380Z,9.43
2017-11-22T07:47:11.668Z,4.70
2017-11-22T07:49:39.173Z,7.82
2017-11-22T07:52:13.077Z,3.47
2017-11-22T07:54:40.590Z,4.90
2017-11-22T07:57:11.016Z,4.15
2017-11-22T07:59:38.524Z,4.10
2017-11-22T08:02:06.037Z,3.30
2017-11-22T08:04:33.543Z,9.57
2017-11-22T08:07:01.837Z,6.43
2017-11-22T08:09:30.099Z,7.60
2017-11-22T08:11:57.607Z,3.60
2017-11-22T08:14:25.107Z,8.10
2017-11-22T08:16:52.950Z,3.28
2017-11-22T08:19:20.452Z,4.68
2017-11-22T08:21:48.735Z,5.72
2017-11-22T08:24:16.998Z,2.55
2017-11-22T08:26:45.274Z,3.50
2017-11-22T08:29:13.554Z,5.10
2017-11-22T08:31:41.862Z,2.97
2017-11-22T08:34:10.143Z,4.00
2017-11-22T08:36:37.664Z,3.83
2017-11-22T08:39:05.958Z,2.42
2017-11-22T08:41:37.282Z,2.05
2017-11-22T08:44:06.603Z,3.58
2017-11-22T08:46:34.879Z,4.05
2017-11-22T08:49:03.204Z,3.47
2017-11-22T08:51:30.712Z,2.05
2017-11-22T08:57:09.542Z,3.20
2017-11-22T08:59:37.056Z,3.22
2017-11-22T09:02:04.575Z,9.43
2017-11-22T09:04:32.851Z,4.12
2017-11-22T09:07:05.095Z,1.90
2017-11-22T09:09:32.617Z,6.12
2017-11-22T09:12:06.756Z,6.60
2017-11-22T09:14:34.297Z,2.22
2017-11-22T09:17:01.819Z,6.68
2017-11-22T09:19:30.094Z,2.75
2017-11-22T09:21:58.370Z,7.80
2017-11-22T09:24:32.277Z,3.00
2017-11-22T09:27:05.436Z,5.90
2017-11-22T09:29:38.733Z,8.85
2017-11-22T09:32:11.828Z,1.70
2017-11-22T09:34:45.029Z,1.37
2017-11-22T09:37:15.166Z,2.83
2017-11-22T09:39:42.708Z,2.42
2017-11-22T09:42:10.200Z,5.65
2017-11-22T09:44:37.711Z,2.40
2017-11-22T09:47:05.211Z,3.20
2017-11-22T09:49:32.723Z,3.12
2017-11-22T09:52:00.269Z,5.55
2017-11-22T09:54:27.819Z,4.85
2017-11-22T09:56:55.323Z,4.65
2017-11-22T09:59:22.824Z,3.85
2017-11-22T10:01:50.356Z,3.00
2017-11-22T10:04:18.619Z,1.55
2017-11-22T10:06:46.140Z,3.17
2017-11-22T10:09:13.644Z,3.40
2017-11-22T10:11:41.944Z,2.40
2017-11-22T10:14:09.459Z,2.30
2017-11-22T10:16:36.997Z,11.10
2017-11-22T10:19:04.506Z,6.45
2017-11-22T10:21:32.813Z,13.75
2017-11-22T10:24:02.260Z,8.43
2017-11-22T10:26:29.791Z,4.95
2017-11-22T10:29:03.063Z,7.70
2017-11-22T10:31:30.587Z,7.78
2017-11-22T10:33:58.101Z,2.87
2017-11-22T10:36:25.641Z,3.60
2017-11-22T10:38:53.147Z,3.65
2017-11-22T10:41:20.677Z,4.30
2017-11-22T10:43:48.193Z,5.53
2017-11-22T10:46:16.489Z,3.05
2017-11-22T10:48:44.009Z,2.65
2017-11-22T10:51:11.571Z,8.93
2017-11-22T10:53:39.088Z,6.57
2017-11-22T10:56:06.611Z,5.55
2017-11-22T10:58:34.905Z,5.65
2017-11-22T11:01:02.405Z,2.75
2017-11-22T11:03:30.915Z,5.43
2017-11-22T11:05:58.432Z,2.75
2017-11-22T11:08:25.961Z,2.55
2017-11-22T11:10:53.459Z,3.10
2017-11-22T11:13:20.981Z,3.47
2017-11-22T11:15:48.493Z,5.37
2017-11-22T11:18:16.027Z,7.57
2017-11-22T11:20:43.531Z,5.37
2017-11-22T11:23:11.068Z,5.28
2017-11-22T11:25:38.577Z,10.68
2017-11-22T11:28:06.109Z,3.75
2017-11-22T11:30:34.384Z,6.03
2017-11-22T11:33:02.686Z,6.68
2017-11-22T11:35:41.890Z,6.68
2017-11-22T11:38:09.416Z,4.90
2017-11-22T11:40:36.933Z,3.72
2017-11-22T11:43:04.472Z,2.85
2017-11-22T11:45:31.985Z,2.75
2017-11-22T11:47:59.526Z,5.03
2017-11-22T11:50:27.035Z,2.95
2017-11-22T11:52:54.573Z,2.50
2017-11-22T11:55:22.072Z,2.75
2017-11-22T11:57:50.342Z,4.35
2017-11-22T12:00:17.882Z,2.37
2017-11-22T12:02:45.388Z,3.22
2017-11-22T12:05:12.903Z,2.90
2017-11-22T12:07:40.412Z,3.40
2017-11-22T12:10:07.945Z,3.35
2017-11-22T12:12:36.232Z,5.05
2017-11-22T12:15:04.541Z,5.65
2017-11-22T12:17:32.057Z,8.65
2017-11-22T12:19:59.585Z,7.15
2017-11-22T12:22:32.785Z,9.20
2017-11-22T12:25:00.403Z,1.85
2017-11-22T12:27:27.908Z,3.05
2017-11-22T12:29:55.429Z,6.93
2017-11-22T12:32:22.936Z,3.70
2017-11-22T12:34:50.460Z,4.15
2017-11-22T12:37:17.983Z,2.17
2017-11-22T12:39:46.288Z,2.53
2017-11-22T12:42:13.792Z,1.30
2017-11-22T12:44:41.325Z,2.70
2017-11-22T12:47:08.840Z,2.90
2017-11-22T12:49:36.381Z,2.90
2017-11-22T12:52:04.657Z,1.15
2017-11-22T12:54:32.928Z,3.08
2017-11-22T12:57:00.450Z,3.78
2017-11-22T12:59:27.956Z,2.83
2017-11-22T13:01:56.249Z,5.37
2017-11-22T13:04:23.759Z,3.17
2017-11-22T13:06:51.297Z,1.90
2017-11-22T13:09:18.821Z,4.12
2017-11-22T13:11:52.004Z,4.18
2017-11-22T13:14:20.284Z,5.00
2017-11-22T13:16:48.572Z,9.02
2017-11-22T13:19:16.099Z,3.97
2017-11-22T13:21:43.632Z,1.67
2017-11-22T13:24:11.151Z,4.55
2017-11-22T13:26:38.664Z,3.67
2017-11-22T13:29:06.189Z,4.47
2017-11-22T13:31:33.717Z,3.28
2017-11-22T13:34:01.989Z,4.22
2017-11-22T13:36:30.317Z,2.65
2017-11-22T13:38:57.824Z,3.75
2017-11-22T13:41:29.897Z,4.15
2017-11-22T13:43:57.419Z,2.12
2017-11-22T13:46:24.938Z,2.35
2017-11-22T13:48:52.465Z,2.83
2017-11-22T13:51:19.974Z,1.98
2017-11-22T13:53:47.518Z,2.70
2017-11-22T13:56:15.043Z,5.25
2017-11-22T13:58:42.572Z,2.90
2017-11-22T14:01:10.076Z,2.08
2017-11-22T14:03:38.356Z,1.40
2017-11-22T14:06:05.875Z,3.20
2017-11-22T14:08:33.407Z,2.35
2017-11-22T14:11:00.915Z,3.92
2017-11-22T14:13:29.212Z,2.65
2017-11-22T14:15:57.485Z,1.70
2017-11-22T14:18:25.053Z,4.03
2017-11-22T14:20:53.326Z,2.85
2017-11-22T14:23:20.870Z,3.37
2017-11-22T14:25:48.413Z,2.78
2017-11-22T14:28:15.917Z,2.50
2017-11-22T14:30:43.456Z,4.00
2017-11-22T14:33:11.733Z,4.00
2017-11-22T14:35:40.022Z,3.58
2017-11-22T14:38:07.544Z,3.90
2017-11-22T14:40:35.067Z,3.00
2017-11-22T14:43:03.352Z,1.58
2017-11-22T14:45:30.879Z,3.08
2017-11-22T14:47:58.401Z,4.90
2017-11-22T14:50:25.928Z,2.67
2017-11-22T14:52:53.449Z,3.08
2017-11-22T14:55:21.766Z,2.80
2017-11-22T14:57:49.290Z,3.22
2017-11-22T15:00:16.818Z,2.62
2017-11-22T15:02:44.352Z,2.45
2017-11-22T15:05:11.862Z,3.37
2017-11-22T15:07:39.387Z,3.17
2017-11-22T15:10:06.903Z,2.42
2017-11-22T15:12:34.434Z,5.18
2017-11-22T15:15:02.735Z,3.95
2017-11-22T15:17:30.266Z,2.55
2017-11-22T15:19:58.536Z,3.97
2017-11-22T15:22:26.068Z,4.55
2017-11-22T15:24:53.568Z,2.10
2017-11-22T15:27:21.878Z,7.85
2017-11-22T15:29:50.152Z,3.00
2017-11-22T15:32:17.671Z,9.23
2017-11-22T15:34:45.944Z,6.68
2017-11-22T15:37:13.483Z,6.55
2017-11-22T15:39:41.018Z,11.77
2017-11-22T15:42:08.640Z,7.53
2017-11-22T15:44:36.908Z,7.65
2017-11-22T15:47:04.434Z,7.32
2017-11-22T15:49:31.970Z,5.05
2017-11-22T15:51:59.497Z,5.35
2017-11-22T15:54:27.764Z,5.97
2017-11-22T15:56:55.301Z,11.20
2017-11-22T15:59:22.840Z,10.88
2017-11-22T16:01:50.350Z,7.40
2017-11-22T16:04:17.870Z,5.45
2017-11-22T16:06:45.375Z,7.87
2017-11-22T16:09:13.702Z,11.35
2017-11-22T16:11:41.242Z,10.07
2017-11-22T16:14:08.908Z,6.53
2017-11-22T16:16:36.409Z,8.10
2017-11-22T16:19:04.712Z,9.30
2017-11-22T16:21:32.237Z,7.65
2017-11-22T16:23:59.810Z,7.53
2017-11-22T16:26:28.116Z,6.40
2017-11-22T16:28:55.682Z,8.40
2017-11-22T16:31:23.201Z,12.40
2017-11-22T16:33:50.753Z,12.63
2017-11-22T16:36:18.283Z,7.32
2017-11-22T16:38:45.833Z,13.70
2017-11-22T16:41:13.355Z,6.20
2017-11-22T16:43:41.644Z,6.95
2017-11-22T16:46:09.154Z,7.78
2017-11-22T16:48:36.718Z,4.25
2017-11-22T16:51:04.243Z,6.70
2017-11-22T16:53:31.788Z,4.72
2017-11-22T16:55:59.337Z,3.25
2017-11-22T16:58:27.001Z,2.65
2017-11-22T17:00:54.545Z,9.15
2017-11-22T17:03:22.848Z,12.07
2017-11-22T17:05:50.372Z,5.03
2017-11-22T17:08:17.911Z,7.40
2017-11-22T17:10:45.437Z,7.45
2017-11-22T17:13:12.957Z,14.73
2017-11-22T17:15:41.244Z,16.80
2017-11-22T17:18:09.566Z,7.30
2017-11-22T17:20:37.157Z,9.30
2017-11-22T17:23:04.718Z,10.05
2017-11-22T17:25:32.249Z,13.13
2017-11-22T17:27:59.771Z,14.32
2017-11-22T17:30:27.359Z,15.55
2017-11-22T17:32:54.909Z,17.52
2017-11-22T17:35:22.436Z,21.15
2017-11-22T17:37:50.755Z,19.75
2017-11-22T17:40:18.329Z,17.67
2017-11-22T17:42:45.842Z,15.32
2017-11-22T17:45:14.133Z,17.33
2017-11-22T17:47:41.888Z,16.55
2017-11-22T17:50:09.475Z,8.90
2017-11-22T17:52:37.032Z,12.43
2017-11-22T17:55:04.604Z,11.55
2017-11-22T17:57:32.174Z,8.43
2017-11-22T17:59:59.696Z,7.75
2017-11-22T18:02:27.267Z,7.00
2017-11-22T18:04:54.814Z,6.00
2017-11-22T18:07:22.375Z,7.93
2017-11-22T18:09:49.878Z,8.13
2017-11-22T18:12:17.459Z,9.43
2017-11-22T18:14:45.011Z,7.65
2017-11-22T18:17:12.573Z,12.37
2017-11-22T18:19:40.126Z,8.35
2017-11-22T18:22:07.704Z,9.65
2017-11-22T18:24:36.039Z,7.50
2017-11-22T18:27:03.612Z,15.85
2017-11-22T18:29:31.163Z,7.32
2017-11-22T18:31:58.740Z,9.90
2017-11-22T18:34:26.307Z,16.70
2017-11-22T18:36:53.880Z,7.55
2017-11-22T18:39:21.428Z,12.40
2017-11-22T18:41:49.003Z,10.27
2017-11-22T18:44:16.574Z,10.90
2017-11-22T18:46:44.183Z,14.70
2017-11-22T18:49:11.729Z,8.68
2017-11-22T18:51:39.270Z,9.35
2017-11-22T18:54:06.878Z,14.77
2017-11-22T18:56:34.437Z,11.32
2017-11-22T18:59:02.007Z,11.15
2017-11-22T19:01:29.566Z,10.95
2017-11-22T19:03:57.087Z,7.85
2017-11-22T19:06:24.662Z,12.90
2017-11-22T19:08:52.231Z,16.45
2017-11-22T19:11:19.766Z,20.92
2017-11-22T19:13:47.363Z,14.20
2017-11-22T19:16:14.954Z,16.55
2017-11-22T19:18:43.261Z,8.85
2017-11-22T19:21:10.866Z,10.77
2017-11-22T19:23:38.428Z,16.30
2017-11-22T19:26:06.002Z,13.10
2017-11-22T19:28:33.545Z,9.00
2017-11-22T19:31:01.111Z,17.92
2017-11-22T19:33:28.671Z,12.60
2017-11-22T19:35:56.248Z,14.18
2017-11-22T19:38:24.576Z,15.23
2017-11-22T19:40:52.156Z,17.95
2017-11-22T19:43:19.702Z,14.27
2017-11-22T19:45:47.272Z,19.30
2017-11-22T19:48:14.825Z,16.17
2017-11-22T19:50:42.377Z,15.35
2017-11-22T19:53:09.881Z,16.08
2017-11-22T19:55:37.499Z,23.17
2017-11-22T19:58:05.052Z,19.45
2017-11-22T20:00:32.607Z,23.30
2017-11-22T20:03:00.177Z,25.23
2017-11-22T20:05:27.737Z,28.73
2017-11-22T20:11:01.994Z,35.80
2017-11-22T20:13:29.568Z,31.55
2017-11-22T20:15:57.152Z,32.78
2017-11-22T20:18:25.460Z,31.60
2017-11-22T20:20:53.029Z,31.90
2017-11-22T20:23:20.599Z,28.20
2017-11-22T20:25:48.787Z,26.73
2017-11-22T20:28:16.363Z,23.20
2017-11-22T20:30:43.924Z,29.67
2017-11-22T20:33:11.525Z,22.75
2017-11-22T20:35:39.093Z,23.90
2017-11-22T20:38:06.679Z,19.02
2017-11-22T20:40:34.235Z,25.23
2017-11-22T20:43:01.768Z,15.13
2017-11-22T20:45:29.330Z,24.33
2017-11-22T20:47:56.911Z,12.02
2017-11-22T20:50:24.463Z,16.05
2017-11-22T20:52:52.048Z,20.00
2017-11-22T20:55:19.599Z,20.65
2017-11-22T20:57:47.184Z,13.60
2017-11-22T21:00:14.739Z,11.82
2017-11-22T21:02:43.102Z,19.10
2017-11-22T21:05:10.684Z,13.32
2017-11-22T21:07:38.272Z,12.82
2017-11-22T21:10:06.639Z,14.65
2017-11-22T21:12:34.216Z,12.35
2017-11-22T21:15:01.799Z,11.85
2017-11-22T21:17:29.527Z,13.13
2017-11-22T21:19:57.885Z,11.07
2017-11-22T21:22:25.451Z,12.48
2017-11-22T21:24:52.971Z,11.05
2017-11-22T21:27:20.763Z,21.65
2017-11-22T21:29:48.322Z,10.02
2017-11-22T21:32:15.882Z,12.00
2017-11-22T21:34:43.428Z,9.90
2017-11-22T21:37:10.986Z,11.30
2017-11-22T21:39:38.547Z,10.68
2017-11-22T21:42:06.056Z,7.72
2017-11-22T21:44:34.389Z,12.32
2017-11-22T21:47:01.933Z,11.20
2017-11-22T21:49:29.448Z,13.60
2017-11-22T21:51:56.989Z,9.98
2017-11-22T21:54:24.570Z,11.43
2017-11-22T21:56:52.109Z,9.20
2017-11-22T21:59:19.667Z,9.93
2017-11-22T22:01:47.469Z,10.45
2017-11-22T22:04:15.046Z,13.38
2017-11-22T22:06:42.622Z,8.05
2017-11-22T22:09:10.179Z,8.73
2017-11-22T22:11:37.733Z,9.27
2017-11-22T22:14:05.267Z,11.68
2017-11-22T22:16:33.581Z,6.15
2017-11-22T22:19:01.082Z,9.93
2017-11-22T22:21:28.642Z,7.55
2017-11-22T22:23:56.188Z,4.82
2017-11-22T22:26:23.717Z,5.05
2017-11-22T22:28:51.215Z,6.62
2017-11-22T22:31:18.776Z,7.60
2017-11-22T22:33:46.322Z,8.88
2017-11-22T22:36:13.878Z,5.30
2017-11-22T22:38:41.409Z,5.97
2017-11-22T22:41:08.976Z,6.07
2017-11-22T22:43:36.510Z,6.82
2017-11-22T22:46:04.058Z,15.02
2017-11-22T22:48:32.328Z,7.03
2017-11-22T22:51:00.611Z,9.45
2017-11-22T22:53:28.905Z,8.52
2017-11-22T22:55:56.449Z,10.27
2017-11-22T22:58:24.737Z,7.47
2017-11-22T23:00:52.286Z,8.30
2017-11-22T23:03:20.560Z,7.93
2017-11-22T23:05:48.875Z,11.12
2017-11-22T23:08:16.395Z,9.10
2017-11-22T23:10:44.710Z,6.90
2017-11-22T23:13:12.275Z,13.95
2017-11-22T23:15:39.788Z,6.75
2017-11-22T23:18:07.299Z,6.32
2017-11-22T23:20:34.855Z,6.53
2017-11-22T23:23:02.372Z,7.82
2017-11-22T23:25:30.649Z,8.88
2017-11-22T23:27:58.941Z,7.80
2017-11-22T23:30:26.503Z,6.53
2017-11-22T23:32:54.065Z,6.35
2017-11-22T23:35:21.565Z,5.20
2017-11-22T23:37:49.109Z,14.02
2017-11-22T23:40:16.615Z,7.80
2017-11-22T23:42:44.879Z,5.10
2017-11-22T23:45:12.395Z,6.37
2017-11-22T23:47:39.914Z,7.25
2017-11-22T23:50:08.196Z,7.65
2017-11-22T23:52:36.472Z,6.80
2017-11-22T23:55:04.760Z,7.70
2017-11-22T23:57:32.268Z,7.85
2017-11-22T23:59:59.788Z,7.90
